createdAt,value
2022-09-05T00:15:16.165Z,10.33
2022-09-05T00:23:19.981Z,8.80
2022-09-05T00:24:25.767Z,9.33
2022-09-05T00:25:30.691Z,8.83
2022-09-05T00:28:26.583Z,9.00
2022-09-05T00:31:55.346Z,9.60
2022-09-05T00:34:56.282Z,9.70
2022-09-05T00:37:32.245Z,10.63
2022-09-05T00:40:22.528Z,9.27
2022-09-05T00:42:55.109Z,8.77
2022-09-05T00:45:36.421Z,9.77
2022-09-05T00:48:37.538Z,11.30
2022-09-05T00:51:35.023Z,10.57
2022-09-05T00:54:43.421Z,10.10
2022-09-05T00:58:08.526Z,10.30
2022-09-05T01:00:52.208Z,9.90
2022-09-05T01:03:48.658Z,8.80
2022-09-05T01:06:37.654Z,9.87
2022-09-05T01:09:23.087Z,10.17
2022-09-05T01:12:40.607Z,11.17
2022-09-05T01:15:58.497Z,11.13
2022-09-05T01:18:37.892Z,11.30
2022-09-05T01:22:03.820Z,10.13
2022-09-05T01:46:35.029Z,8.30
2022-09-05T01:49:46.892Z,9.43
2022-09-05T01:52:33.366Z,8.97
2022-09-05T01:55:32.216Z,8.60
2022-09-05T01:58:48.508Z,8.70
2022-09-05T02:01:48.123Z,9.80
2022-09-05T02:04:48.211Z,9.10
2022-09-05T02:07:47.781Z,9.30
2022-09-05T02:10:59.645Z,9.43
2022-09-05T02:13:50.550Z,8.70
2022-09-05T02:16:43.837Z,8.13
2022-09-05T02:19:25.951Z,8.17
2022-09-05T02:22:19.068Z,8.07
2022-09-05T02:24:58.505Z,9.17
2022-09-05T02:28:04.453Z,8.60
2022-09-05T02:30:48.471Z,8.50
2022-09-05T02:33:47.477Z,8.63
2022-09-05T02:36:35.745Z,8.27
2022-09-05T02:45:04.215Z,8.53
2022-09-05T02:45:19.502Z,8.00
2022-09-05T02:46:44.677Z,9.10
2022-09-05T02:52:21.223Z,10.00
2022-09-05T02:57:26.857Z,10.80
2022-09-05T02:57:35.237Z,11.37
2022-09-05T02:59:11.961Z,9.83
2022-09-05T03:02:39.842Z,10.43
2022-09-05T03:05:33.410Z,8.80
2022-09-05T03:08:34.232Z,9.33
2022-09-05T03:11:50.770Z,9.93
2022-09-05T03:14:58.973Z,8.80
2022-09-05T03:17:54.328Z,8.80
2022-09-05T03:20:32.873Z,8.60
2022-09-05T03:23:44.378Z,8.60
2022-09-05T03:26:57.198Z,9.27
2022-09-05T03:30:11.979Z,7.90
2022-09-05T03:33:20.275Z,9.50
2022-09-05T03:36:26.109Z,8.20
2022-09-05T03:39:14.056Z,7.80
2022-09-05T03:42:19.100Z,8.23
2022-09-05T03:45:15.482Z,8.80
2022-09-05T03:48:29.317Z,9.57
2022-09-05T03:57:07.615Z,8.17
2022-09-05T03:57:25.012Z,7.90
2022-09-05T03:58:18.082Z,8.33
2022-09-05T04:01:20.283Z,9.00
2022-09-05T04:08:13.920Z,7.73
2022-09-05T04:08:15.464Z,8.00
2022-09-05T04:10:33.204Z,8.33
2022-09-05T04:13:34.284Z,8.27
2022-09-05T04:16:18.546Z,8.37
2022-09-05T04:19:09.895Z,7.90
2022-09-05T04:21:46.879Z,8.50
2022-09-05T04:24:45.266Z,8.77
2022-09-05T04:27:37.025Z,8.00
2022-09-05T04:30:45.381Z,8.90
2022-09-05T04:34:02.860Z,8.73
2022-09-05T04:36:38.236Z,8.03
2022-09-05T04:39:40.400Z,8.60
2022-09-05T04:42:28.448Z,8.13
2022-09-05T04:45:09.974Z,8.00
2022-09-05T04:47:50.832Z,10.13
2022-09-05T04:50:23.704Z,9.27
2022-09-05T04:53:28.861Z,9.00
2022-09-05T04:55:58.271Z,15.33
2022-09-05T05:03:24.831Z,14.40
2022-09-05T05:05:58.427Z,11.40
2022-09-05T05:06:19.943Z,9.20
2022-09-05T05:07:53.870Z,8.60
2022-09-05T05:16:26.556Z,9.77
2022-09-05T05:18:11.987Z,7.90
2022-09-05T05:18:12.786Z,8.70
2022-09-05T05:20:44.167Z,7.70
2022-09-05T05:23:15.935Z,7.00
2022-09-05T05:25:59.455Z,8.33
2022-09-05T05:28:59.129Z,9.43
2022-09-05T05:31:36.307Z,9.70
2022-09-05T05:34:24.552Z,9.67
2022-09-05T05:37:23.692Z,7.80
2022-09-05T05:40:11.297Z,6.73
2022-09-05T05:42:40.017Z,6.27
2022-09-05T05:45:26.221Z,6.50
2022-09-05T05:48:06.067Z,5.93
2022-09-05T05:50:51.761Z,5.70
2022-09-05T05:54:14.908Z,5.77
2022-09-05T05:57:12.537Z,5.53
2022-09-05T06:00:17.330Z,5.43
2022-09-05T06:03:25.289Z,5.20
2022-09-05T06:06:42.745Z,4.70
2022-09-05T06:18:50.717Z,4.50
2022-09-05T06:34:33.258Z,3.60
2022-09-05T06:37:27.288Z,4.30
2022-09-05T06:40:21.566Z,4.07
2022-09-05T06:43:42.486Z,4.10
2022-09-05T06:46:54.856Z,3.37
2022-09-05T06:50:23.832Z,5.00
2022-09-05T06:53:38.451Z,4.13
2022-09-05T06:56:26.050Z,3.70
2022-09-05T06:59:25.476Z,3.60
2022-09-05T07:02:00.506Z,3.27
2022-09-05T07:05:37.943Z,3.67
2022-09-05T07:08:09.304Z,3.13
2022-09-05T07:11:11.488Z,3.97
2022-09-05T07:13:58.211Z,3.40
2022-09-05T07:16:50.990Z,2.40
2022-09-05T07:20:04.213Z,2.80
2022-09-05T07:23:25.765Z,2.63
2022-09-05T07:25:52.467Z,3.93
2022-09-05T07:28:28.950Z,2.23
2022-09-05T07:31:07.480Z,2.80
2022-09-05T07:33:39.105Z,2.80
2022-09-05T07:36:27.785Z,2.50
2022-09-05T07:39:25.205Z,2.30
2022-09-05T07:41:53.656Z,1.90
2022-09-05T07:44:27.666Z,1.97
2022-09-05T07:47:22.630Z,1.90
2022-09-05T07:51:22.929Z,1.93
2022-09-05T07:56:52.409Z,2.10
2022-09-05T07:57:09.637Z,1.60
2022-09-05T07:58:41.399Z,2.17
2022-09-05T08:01:13.925Z,1.88
2022-09-05T08:03:44.069Z,1.42
2022-09-05T08:06:54.103Z,1.77
2022-09-05T08:10:08.492Z,2.03
2022-09-05T08:12:16.009Z,1.80
2022-09-05T08:15:13.952Z,1.30
2022-09-05T08:18:07.572Z,1.42
2022-09-05T08:21:11.210Z,1.27
2022-09-05T08:24:17.524Z,1.30
2022-09-05T08:27:25.061Z,1.58
2022-09-05T08:30:26.526Z,1.40
2022-09-05T08:33:19.378Z,1.60
2022-09-05T08:36:01.213Z,1.30
2022-09-05T08:38:40.354Z,1.58
2022-09-05T08:41:13.882Z,1.15
2022-09-05T08:46:36.896Z,1.20
2022-09-05T08:47:45.283Z,1.15
2022-09-05T08:50:40.379Z,0.93
2022-09-05T08:53:46.555Z,1.52
2022-09-05T08:56:42.020Z,1.02
2022-09-05T09:00:04.295Z,0.80
2022-09-05T09:03:07.000Z,2.03
2022-09-05T09:09:23.451Z,1.38
2022-09-05T09:12:27.655Z,0.95
2022-09-05T09:15:11.287Z,0.85
2022-09-05T09:17:46.029Z,0.90
2022-09-05T09:20:49.321Z,0.98
2022-09-05T09:23:34.736Z,0.80
2022-09-05T09:26:16.025Z,1.08
2022-09-05T09:29:07.168Z,0.85
2022-09-05T09:32:23.411Z,0.85
2022-09-05T09:34:56.350Z,0.60
2022-09-05T09:38:03.035Z,0.68
2022-09-05T09:41:03.543Z,0.65
2022-09-05T09:44:19.463Z,0.60
2022-09-05T09:46:50.750Z,0.60
2022-09-05T09:49:53.844Z,0.65
2022-09-05T09:52:36.148Z,0.60
2022-09-05T09:55:44.037Z,0.68
2022-09-05T09:58:49.918Z,0.70
2022-09-05T10:01:53.457Z,0.63
2022-09-05T10:10:33.790Z,0.60
2022-09-05T10:10:51.339Z,0.80
2022-09-05T10:11:54.203Z,0.60
2022-09-05T10:15:30.412Z,0.80
2022-09-05T10:18:31.683Z,0.60
2022-09-05T10:25:18.879Z,0.90
2022-09-05T10:28:07.853Z,0.82
2022-09-05T10:32:29.644Z,0.90
2022-09-05T10:35:17.913Z,0.65
2022-09-05T10:37:13.267Z,1.00
2022-09-05T10:39:44.096Z,1.00
2022-09-05T10:42:25.375Z,1.05
2022-09-05T10:44:55.287Z,0.70
2022-09-05T10:47:48.640Z,0.70
2022-09-05T10:50:32.938Z,0.70
2022-09-05T10:53:39.455Z,0.90
2022-09-05T10:56:14.920Z,0.80
2022-09-05T11:00:05.699Z,0.70
2022-09-05T11:02:28.498Z,0.80
2022-09-05T11:05:27.161Z,0.90
2022-09-05T11:08:36.022Z,0.82
2022-09-05T11:11:34.130Z,0.90
2022-09-05T11:14:07.322Z,0.90
2022-09-05T11:17:24.649Z,0.70
2022-09-05T11:20:34.832Z,0.70
2022-09-05T11:23:19.483Z,0.68
2022-09-05T11:25:51.217Z,0.80
2022-09-05T11:28:37.702Z,0.60
2022-09-05T11:31:22.437Z,0.60
2022-09-05T11:39:47.458Z,0.70
2022-09-05T11:40:05.508Z,0.70
2022-09-05T11:41:38.858Z,0.60
2022-09-05T11:44:35.808Z,0.80
2022-09-05T11:47:47.038Z,0.63
2022-09-05T11:50:57.899Z,0.60
2022-09-05T11:53:58.052Z,0.88
2022-09-05T11:57:34.376Z,0.70
2022-09-05T12:00:47.983Z,0.70
2022-09-05T12:04:04.682Z,0.70
2022-09-05T12:07:30.307Z,0.90
2022-09-05T12:16:19.513Z,0.73
2022-09-05T12:19:19.255Z,0.60
2022-09-05T12:29:26.194Z,0.60
2022-09-05T12:36:04.060Z,0.60
2022-09-05T12:40:44.503Z,0.60
2022-09-05T12:41:17.821Z,0.60
2022-09-05T12:44:37.492Z,0.88
2022-09-05T12:46:24.474Z,0.50
2022-09-05T12:49:07.683Z,0.60
2022-09-05T12:51:46.493Z,0.50
2022-09-05T12:54:33.498Z,0.60
2022-09-05T13:00:30.342Z,0.55
2022-09-05T13:03:11.950Z,1.10
2022-09-05T13:03:28.571Z,0.60
2022-09-05T13:06:25.062Z,0.82
2022-09-05T13:09:02.017Z,0.70
2022-09-05T13:14:53.445Z,0.55
2022-09-05T13:14:59.902Z,0.60
2022-09-05T13:17:54.291Z,0.70
2022-09-05T13:20:36.762Z,0.50
2022-09-05T13:23:16.000Z,0.55
2022-09-05T13:25:48.011Z,0.70
2022-09-05T13:28:15.970Z,0.50
2022-09-05T13:37:55.709Z,0.70
2022-09-05T13:38:06.305Z,0.55
2022-09-05T13:38:12.827Z,0.63
2022-09-05T13:39:54.057Z,0.45
2022-09-05T13:42:28.661Z,0.73
2022-09-05T13:44:59.099Z,0.60
2022-09-05T13:48:18.124Z,0.60
2022-09-05T13:50:55.027Z,0.60
2022-09-05T13:53:35.761Z,0.60
2022-09-05T13:56:25.910Z,0.50
2022-09-05T13:59:02.487Z,0.60
2022-09-05T14:02:26.466Z,0.60
2022-09-05T14:05:21.174Z,0.60
2022-09-05T14:08:23.013Z,0.60
2022-09-05T14:11:44.998Z,0.73
2022-09-05T14:15:11.373Z,0.70
2022-09-05T14:21:18.942Z,0.57
2022-09-05T14:24:21.997Z,0.70
2022-09-05T14:27:18.085Z,0.70
2022-09-05T14:30:00.956Z,0.70
2022-09-05T14:37:34.884Z,0.90
2022-09-05T14:37:43.039Z,0.73
2022-09-05T14:39:49.616Z,0.90
2022-09-05T14:43:01.768Z,0.80
2022-09-05T14:46:05.595Z,0.90
2022-09-05T14:49:13.554Z,1.10
2022-09-05T14:51:48.301Z,0.97
2022-09-05T15:02:38.196Z,0.80
2022-09-05T15:02:53.580Z,0.80
2022-09-05T15:03:05.060Z,0.90
2022-09-05T15:05:43.237Z,0.90
2022-09-05T15:11:24.493Z,0.70
2022-09-05T15:12:20.231Z,0.80
2022-09-05T15:14:06.095Z,1.07
2022-09-05T15:16:43.721Z,0.80
2022-09-05T15:19:11.452Z,1.13
2022-09-05T15:21:41.607Z,1.10
2022-09-05T15:24:30.388Z,0.87
2022-09-05T15:26:59.749Z,0.90
2022-09-05T15:29:35.433Z,0.87
2022-09-05T15:32:31.093Z,1.10
2022-09-05T15:35:00.468Z,0.80
2022-09-05T15:37:42.366Z,1.43
2022-09-05T15:40:22.452Z,0.90
2022-09-05T15:42:57.890Z,0.90
2022-09-05T15:45:35.550Z,1.23
2022-09-05T15:48:33.942Z,1.10
2022-09-05T15:51:11.037Z,0.80
2022-09-05T15:53:38.672Z,1.07
2022-09-05T15:56:20.359Z,1.00
2022-09-05T15:58:56.885Z,1.00
2022-09-05T16:01:59.245Z,1.00
2022-09-05T16:08:50.757Z,0.90
2022-09-05T16:10:47.004Z,1.00
2022-09-05T16:11:05.427Z,1.00
2022-09-05T16:13:39.691Z,1.00
2022-09-05T16:20:31.651Z,1.33
2022-09-05T16:23:29.523Z,0.93
2022-09-05T16:23:37.846Z,1.40
2022-09-05T16:25:00.221Z,0.70
2022-09-05T16:28:10.582Z,1.17
2022-09-05T16:30:39.868Z,1.00
2022-09-05T16:33:18.226Z,1.10
2022-09-05T16:36:29.475Z,1.10
2022-09-05T16:39:17.422Z,1.60
2022-09-05T16:42:10.699Z,1.50
2022-09-05T16:44:54.791Z,0.80
2022-09-05T16:47:46.940Z,1.10
2022-09-05T16:50:38.758Z,1.00
2022-09-05T16:53:30.236Z,1.10
2022-09-05T16:56:20.171Z,0.90
2022-09-05T16:58:51.363Z,1.00
2022-09-05T17:02:05.851Z,1.23
2022-09-05T17:05:06.241Z,1.30
2022-09-05T17:08:02.588Z,1.27
2022-09-05T17:10:57.975Z,1.40
2022-09-05T17:13:55.205Z,1.10
2022-09-05T17:16:44.233Z,1.33
2022-09-05T17:19:22.372Z,1.03
2022-09-05T17:24:21.669Z,0.80
2022-09-05T17:29:25.751Z,1.13
2022-09-05T17:29:34.488Z,1.20
2022-09-05T17:32:00.117Z,1.33
2022-09-05T17:35:22.123Z,1.47
2022-09-05T17:38:42.797Z,1.50
2022-09-05T17:41:47.125Z,1.63
2022-09-05T17:44:43.887Z,1.20
2022-09-05T17:47:36.473Z,1.10
2022-09-05T17:50:33.647Z,1.60
2022-09-05T17:53:26.270Z,2.33
2022-09-05T17:56:26.680Z,2.80
2022-09-05T17:59:38.630Z,2.13
2022-09-05T18:02:05.570Z,1.70
2022-09-05T18:04:54.276Z,1.70
2022-09-05T18:07:47.189Z,2.17
2022-09-05T18:10:27.553Z,2.50
2022-09-05T18:13:13.457Z,1.90
2022-09-05T18:16:11.331Z,2.20
2022-09-05T18:19:32.348Z,1.80
2022-09-05T18:21:53.101Z,2.30
2022-09-05T18:24:44.012Z,14.70
2022-09-05T18:28:03.308Z,7.17
2022-09-05T18:30:29.218Z,5.80
2022-09-05T18:33:53.294Z,4.40
2022-09-05T18:36:52.394Z,4.40
2022-09-05T18:39:48.366Z,4.00
2022-09-05T18:42:25.939Z,3.30
2022-09-05T18:45:14.459Z,3.67
2022-09-05T18:48:07.252Z,2.40
2022-09-05T18:50:42.150Z,2.57
2022-09-05T18:53:14.965Z,2.20
2022-09-05T18:57:12.075Z,2.57
2022-09-05T18:59:40.327Z,2.00
2022-09-05T19:02:32.118Z,2.23
2022-09-05T19:05:19.659Z,1.97
2022-09-05T19:07:59.338Z,2.07
2022-09-05T19:10:36.225Z,2.30
2022-09-05T19:13:17.545Z,2.30
2022-09-05T19:16:42.601Z,2.33
2022-09-05T19:19:31.993Z,2.30
2022-09-05T19:22:54.143Z,2.30
2022-09-05T19:24:50.014Z,2.37
2022-09-05T19:28:29.251Z,2.57
2022-09-05T19:36:45.998Z,2.20
2022-09-05T19:36:50.444Z,2.20
2022-09-05T19:37:10.675Z,2.10
2022-09-05T19:39:57.718Z,1.80
2022-09-05T19:47:36.677Z,1.70
2022-09-05T19:47:51.103Z,2.30
2022-09-05T19:48:07.855Z,3.07
2022-09-05T19:50:30.069Z,2.10
2022-09-05T19:53:07.554Z,2.30
2022-09-05T19:55:37.918Z,2.40
2022-09-05T19:58:20.170Z,2.30
2022-09-05T20:01:01.273Z,1.90
2022-09-05T20:03:38.650Z,2.77
2022-09-05T20:06:29.217Z,1.73
2022-09-05T20:09:18.109Z,2.40
2022-09-05T20:11:53.058Z,2.60
2022-09-05T20:14:31.918Z,1.90
2022-09-05T20:17:18.126Z,1.80
2022-09-05T20:19:46.059Z,1.93
2022-09-05T20:22:47.614Z,1.77
2022-09-05T20:25:36.161Z,1.97
2022-09-05T20:28:10.657Z,1.30
2022-09-05T20:30:42.474Z,1.63
2022-09-05T20:33:39.948Z,1.70
2022-09-05T20:42:02.428Z,1.30
2022-09-05T20:43:15.474Z,1.77
2022-09-05T20:43:18.671Z,1.90
2022-09-05T20:45:48.439Z,1.83
2022-09-05T20:54:13.078Z,1.43
2022-09-05T20:54:14.952Z,1.73
2022-09-05T20:54:32.211Z,1.90
2022-09-05T20:57:16.757Z,1.90
2022-09-05T20:59:45.243Z,1.70
2022-09-05T21:02:33.767Z,2.10
2022-09-05T21:05:21.060Z,1.70
2022-09-05T21:08:06.914Z,1.90
2022-09-05T21:10:52.421Z,1.60
2022-09-05T21:13:51.919Z,1.77
2022-09-05T21:16:27.177Z,1.97
2022-09-05T21:18:55.022Z,1.70
2022-09-05T21:21:32.308Z,2.10
2022-09-05T21:24:16.084Z,1.63
2022-09-05T21:26:44.172Z,2.10
2022-09-05T21:29:21.206Z,1.40
2022-09-05T21:31:57.816Z,1.80
2022-09-05T21:34:33.256Z,1.80
2022-09-05T21:37:07.622Z,1.50
2022-09-05T21:39:58.507Z,2.13
2022-09-05T21:44:46.764Z,3.30
2022-09-05T21:47:44.091Z,1.80
2022-09-05T21:48:07.796Z,1.90
2022-09-05T21:50:46.944Z,2.10
2022-09-05T21:58:10.658Z,1.93
2022-09-05T21:59:33.203Z,1.90
2022-09-05T21:59:45.310Z,1.80
2022-09-05T22:02:19.964Z,2.00
2022-09-05T22:04:48.434Z,2.00
2022-09-05T22:07:27.375Z,1.57
2022-09-05T22:10:01.431Z,3.40
2022-09-05T22:12:35.758Z,1.90
2022-09-05T22:15:27.305Z,1.80
2022-09-05T22:18:06.346Z,2.00
2022-09-05T22:20:44.479Z,2.90
2022-09-05T22:23:11.970Z,1.90
2022-09-05T22:25:39.336Z,2.10
2022-09-05T22:28:12.870Z,2.10
2022-09-05T22:30:41.505Z,2.10
2022-09-05T22:33:08.906Z,2.40
2022-09-05T22:35:39.230Z,1.90
2022-09-05T22:38:16.487Z,2.07
2022-09-05T22:40:47.896Z,1.83
2022-09-05T22:43:16.468Z,1.77
2022-09-05T22:45:46.635Z,2.70
2022-09-05T22:48:14.717Z,1.80
2022-09-05T22:50:43.548Z,1.80
2022-09-05T22:53:11.957Z,2.53
2022-09-05T22:55:42.587Z,2.23
2022-09-05T22:58:13.468Z,2.20
2022-09-05T23:00:42.270Z,2.20
2022-09-05T23:03:10.144Z,2.17
2022-09-05T23:05:46.182Z,2.47
2022-09-05T23:08:14.590Z,1.90
2022-09-05T23:10:43.070Z,3.90
2022-09-05T23:13:21.817Z,2.27
2022-09-05T23:15:50.608Z,2.30
2022-09-05T23:18:17.777Z,2.10
2022-09-05T23:20:45.360Z,2.30
2022-09-05T23:23:12.716Z,2.10
2022-09-05T23:25:39.668Z,2.40
2022-09-05T23:28:10.320Z,2.47
2022-09-05T23:30:38.681Z,2.00
2022-09-05T23:33:08.300Z,2.13
2022-09-05T23:35:36.857Z,1.67
2022-09-05T23:38:08.644Z,2.40
2022-09-05T23:40:35.672Z,2.17
2022-09-05T23:43:02.733Z,2.10
2022-09-05T23:45:30.163Z,2.20
2022-09-05T23:47:58.499Z,2.10
2022-09-05T23:50:26.888Z,2.70
2022-09-05T23:52:54.919Z,2.03
2022-09-05T23:55:23.746Z,2.70
2022-09-05T23:57:59.785Z,2.70
